sensor_id;sensor_type;location;lat;lon;timestamp;pressure;altitude;pressure_sealevel;temperature
50206;BMP280;36098;48.390;10.856;2023-03-23T00:02:00;95585.44;;;24.33
50206;BMP280;36098;48.390;10.856;2023-03-23T00:04:32;95591.13;;;24.27
50206;BMP280;36098;48.390;10.856;2023-03-23T00:07:00;95590.59;;;24.25
50206;BMP280;36098;48.390;10.856;2023-03-23T00:09:28;95590.91;;;24.23
50206;BMP280;36098;48.390;10.856;2023-03-23T00:11:59;95589.75;;;24.29
50206;BMP280;36098;48.390;10.856;2023-03-23T00:14:33;95588.75;;;24.25
50206;BMP280;36098;48.390;10.856;2023-03-23T00:17:07;95594.38;;;24.19
50206;BMP280;36098;48.390;10.856;2023-03-23T00:19:39;95590.53;;;24.30
50206;BMP280;36098;48.390;10.856;2023-03-23T00:22:13;95600.38;;;24.24
50206;BMP280;36098;48.390;10.856;2023-03-23T00:24:42;95590.09;;;24.23
50206;BMP280;36098;48.390;10.856;2023-03-23T00:27:09;95591.47;;;24.20
50206;BMP280;36098;48.390;10.856;2023-03-23T00:29:37;95588.34;;;24.18
50206;BMP280;36098;48.390;10.856;2023-03-23T00:32:03;95594.25;;;24.10
50206;BMP280;36098;48.390;10.856;2023-03-23T00:34:31;95590.84;;;24.10
50206;BMP280;36098;48.390;10.856;2023-03-23T00:36:57;95594.16;;;24.15
50206;BMP280;36098;48.390;10.856;2023-03-23T00:39:23;95586.63;;;24.09
50206;BMP280;36098;48.390;10.856;2023-03-23T00:41:54;95586.06;;;24.12
50206;BMP280;36098;48.390;10.856;2023-03-23T00:44:26;95582.94;;;24.10
50206;BMP280;36098;48.390;10.856;2023-03-23T00:46:51;95587.97;;;24.06
50206;BMP280;36098;48.390;10.856;2023-03-23T00:49:20;95585.50;;;23.96
50206;BMP280;36098;48.390;10.856;2023-03-23T00:51:50;95585.91;;;24.03
50206;BMP280;36098;48.390;10.856;2023-03-23T00:54:18;95574.66;;;23.98
50206;BMP280;36098;48.390;10.856;2023-03-23T00:56:44;95578.09;;;23.98
50206;BMP280;36098;48.390;10.856;2023-03-23T00:59:13;95577.03;;;23.99
50206;BMP280;36098;48.390;10.856;2023-03-23T01:01:38;95572.88;;;23.93
50206;BMP280;36098;48.390;10.856;2023-03-23T01:04:05;95575.16;;;24.00
50206;BMP280;36098;48.390;10.856;2023-03-23T01:06:31;95568.53;;;24.02
50206;BMP280;36098;48.390;10.856;2023-03-23T01:08:57;95565.03;;;24.07
50206;BMP280;36098;48.390;10.856;2023-03-23T01:11:23;95568.88;;;23.96
50206;BMP280;36098;48.390;10.856;2023-03-23T01:13:50;95564.41;;;23.96
50206;BMP280;36098;48.390;10.856;2023-03-23T01:16:15;95565.41;;;24.00
50206;BMP280;36098;48.390;10.856;2023-03-23T01:18:44;95560.47;;;23.94
50206;BMP280;36098;48.390;10.856;2023-03-23T01:21:10;95558.63;;;23.94
50206;BMP280;36098;48.390;10.856;2023-03-23T01:23:36;95549.38;;;23.97
50206;BMP280;36098;48.390;10.856;2023-03-23T01:26:11;95544.66;;;23.94
50206;BMP280;36098;48.390;10.856;2023-03-23T01:28:37;95542.03;;;23.94
50206;BMP280;36098;48.390;10.856;2023-03-23T01:31:02;95536.25;;;23.92
50206;BMP280;36098;48.390;10.856;2023-03-23T01:33:28;95535.53;;;23.86
50206;BMP280;36098;48.390;10.856;2023-03-23T01:35:54;95532.91;;;23.86
50206;BMP280;36098;48.390;10.856;2023-03-23T01:38:20;95524.91;;;23.91
50206;BMP280;36098;48.390;10.856;2023-03-23T01:40:46;95531.75;;;23.92
50206;BMP280;36098;48.390;10.856;2023-03-23T01:43:12;95527.63;;;23.86
50206;BMP280;36098;48.390;10.856;2023-03-23T01:45:41;95518.97;;;23.81
50206;BMP280;36098;48.390;10.856;2023-03-23T01:48:09;95522.69;;;23.80
50206;BMP280;36098;48.390;10.856;2023-03-23T01:50:37;95528.97;;;23.84
50206;BMP280;36098;48.390;10.856;2023-03-23T01:53:06;95533.22;;;23.80
50206;BMP280;36098;48.390;10.856;2023-03-23T01:55:33;95526.16;;;23.75
50206;BMP280;36098;48.390;10.856;2023-03-23T01:58:01;95524.34;;;23.76
50206;BMP280;36098;48.390;10.856;2023-03-23T02:00:33;95530.91;;;23.78
50206;BMP280;36098;48.390;10.856;2023-03-23T02:02:59;95533.59;;;23.73
50206;BMP280;36098;48.390;10.856;2023-03-23T02:05:38;95529.69;;;23.71
50206;BMP280;36098;48.390;10.856;2023-03-23T02:08:04;95522.63;;;23.66
50206;BMP280;36098;48.390;10.856;2023-03-23T02:10:31;95526.06;;;23.67
50206;BMP280;36098;48.390;10.856;2023-03-23T02:12:57;95515.22;;;23.68
50206;BMP280;36098;48.390;10.856;2023-03-23T02:15:24;95504.91;;;23.72
50206;BMP280;36098;48.390;10.856;2023-03-23T02:17:54;95497.56;;;23.69
50206;BMP280;36098;48.390;10.856;2023-03-23T02:33:36;95508.38;;;23.67
50206;BMP280;36098;48.390;10.856;2023-03-23T02:38:30;95521.06;;;23.65
50206;BMP280;36098;48.390;10.856;2023-03-23T02:40:57;95520.06;;;23.61
50206;BMP280;36098;48.390;10.856;2023-03-23T02:43:27;95519.00;;;23.62
50206;BMP280;36098;48.390;10.856;2023-03-23T02:45:53;95506.59;;;23.63
50206;BMP280;36098;48.390;10.856;2023-03-23T02:48:24;95512.94;;;23.62
50206;BMP280;36098;48.390;10.856;2023-03-23T02:50:51;95512.16;;;23.61
50206;BMP280;36098;48.390;10.856;2023-03-23T02:53:20;95502.47;;;23.57
50206;BMP280;36098;48.390;10.856;2023-03-23T02:55:46;95513.22;;;23.60
50206;BMP280;36098;48.390;10.856;2023-03-23T02:58:13;95516.84;;;23.64
50206;BMP280;36098;48.390;10.856;2023-03-23T03:00:39;95520.13;;;23.56
50206;BMP280;36098;48.390;10.856;2023-03-23T03:03:05;95522.75;;;23.56
50206;BMP280;36098;48.390;10.856;2023-03-23T03:10:55;95520.13;;;23.56
50206;BMP280;36098;48.390;10.856;2023-03-23T03:19:11;95514.19;;;23.46
50206;BMP280;36098;48.390;10.856;2023-03-23T03:21:40;95513.34;;;23.50
50206;BMP280;36098;48.390;10.856;2023-03-23T03:24:07;95521.84;;;23.47
50206;BMP280;36098;48.390;10.856;2023-03-23T03:26:39;95511.03;;;23.49
50206;BMP280;36098;48.390;10.856;2023-03-23T03:29:06;95522.34;;;23.49
50206;BMP280;36098;48.390;10.856;2023-03-23T03:31:32;95518.72;;;23.45
50206;BMP280;36098;48.390;10.856;2023-03-23T03:33:59;95514.50;;;23.44
50206;BMP280;36098;48.390;10.856;2023-03-23T03:36:27;95513.66;;;23.49
50206;BMP280;36098;48.390;10.856;2023-03-23T03:38:59;95520.84;;;23.43
50206;BMP280;36098;48.390;10.856;2023-03-23T03:41:25;95517.13;;;23.44
50206;BMP280;36098;48.390;10.856;2023-03-23T03:43:51;95536.16;;;23.41
50206;BMP280;36098;48.390;10.856;2023-03-23T03:46:19;95532.88;;;23.49
50206;BMP280;36098;48.390;10.856;2023-03-23T03:48:48;95534.50;;;23.45
50206;BMP280;36098;48.390;10.856;2023-03-23T03:51:16;95548.34;;;23.37
50206;BMP280;36098;48.390;10.856;2023-03-23T03:53:42;95557.44;;;23.45
50206;BMP280;36098;48.390;10.856;2023-03-23T03:56:10;95554.44;;;23.51
50206;BMP280;36098;48.390;10.856;2023-03-23T03:58:38;95564.63;;;23.39
50206;BMP280;36098;48.390;10.856;2023-03-23T04:01:04;95561.44;;;23.42
50206;BMP280;36098;48.390;10.856;2023-03-23T04:03:29;95557.81;;;23.38
50206;BMP280;36098;48.390;10.856;2023-03-23T04:05:55;95561.50;;;23.37
50206;BMP280;36098;48.390;10.856;2023-03-23T04:08:24;95550.44;;;23.35
50206;BMP280;36098;48.390;10.856;2023-03-23T04:10:52;95554.63;;;23.36
50206;BMP280;36098;48.390;10.856;2023-03-23T04:13:20;95550.16;;;23.37
50206;BMP280;36098;48.390;10.856;2023-03-23T04:15:47;95557.28;;;23.36
50206;BMP280;36098;48.390;10.856;2023-03-23T04:18:16;95547.31;;;23.33
50206;BMP280;36098;48.390;10.856;2023-03-23T04:20:43;95538.41;;;23.29
50206;BMP280;36098;48.390;10.856;2023-03-23T04:23:09;95535.00;;;23.29
50206;BMP280;36098;48.390;10.856;2023-03-23T04:25:35;95530.44;;;23.34
50206;BMP280;36098;48.390;10.856;2023-03-23T04:28:01;95537.63;;;23.29
50206;BMP280;36098;48.390;10.856;2023-03-23T04:30:29;95531.22;;;23.35
50206;BMP280;36098;48.390;10.856;2023-03-23T04:32:57;95527.31;;;23.32
50206;BMP280;36098;48.390;10.856;2023-03-23T04:35:26;95525.88;;;23.22
50206;BMP280;36098;48.390;10.856;2023-03-23T04:37:52;95522.59;;;23.29
50206;BMP280;36098;48.390;10.856;2023-03-23T04:40:18;95519.25;;;23.24
50206;BMP280;36098;48.390;10.856;2023-03-23T04:42:48;95512.13;;;23.25
50206;BMP280;36098;48.390;10.856;2023-03-23T04:45:19;95495.69;;;23.32
50206;BMP280;36098;48.390;10.856;2023-03-23T04:47:49;95493.91;;;23.28
50206;BMP280;36098;48.390;10.856;2023-03-23T04:50:20;95489.44;;;23.28
50206;BMP280;36098;48.390;10.856;2023-03-23T04:52:49;95488.44;;;23.25
50206;BMP280;36098;48.390;10.856;2023-03-23T04:55:18;95502.22;;;23.17
50206;BMP280;36098;48.390;10.856;2023-03-23T04:57:48;95507.47;;;23.17
50206;BMP280;36098;48.390;10.856;2023-03-23T05:00:16;95504.34;;;23.15
50206;BMP280;36098;48.390;10.856;2023-03-23T05:02:43;95491.19;;;23.15
50206;BMP280;36098;48.390;10.856;2023-03-23T05:05:09;95479.81;;;23.19
50206;BMP280;36098;48.390;10.856;2023-03-23T05:07:36;95486.63;;;23.20
50206;BMP280;36098;48.390;10.856;2023-03-23T05:10:02;95479.88;;;23.14
50206;BMP280;36098;48.390;10.856;2023-03-23T05:12:27;95480.16;;;23.13
50206;BMP280;36098;48.390;10.856;2023-03-23T05:14:53;95466.63;;;23.19
50206;BMP280;36098;48.390;10.856;2023-03-23T05:17:21;95463.66;;;23.26
50206;BMP280;36098;48.390;10.856;2023-03-23T05:19:51;95466.22;;;23.30
50206;BMP280;36098;48.390;10.856;2023-03-23T05:22:16;95467.50;;;23.33
50206;BMP280;36098;48.390;10.856;2023-03-23T05:24:42;95464.53;;;23.39
50206;BMP280;36098;48.390;10.856;2023-03-23T05:27:10;95465.06;;;23.36
50206;BMP280;36098;48.390;10.856;2023-03-23T05:29:36;95462.72;;;23.35
50206;BMP280;36098;48.390;10.856;2023-03-23T05:32:03;95456.13;;;23.37
50206;BMP280;36098;48.390;10.856;2023-03-23T05:34:29;95457.97;;;23.37
50206;BMP280;36098;48.390;10.856;2023-03-23T05:36:57;95461.81;;;23.44
50206;BMP280;36098;48.390;10.856;2023-03-23T05:39:27;95455.13;;;23.52
50206;BMP280;36098;48.390;10.856;2023-03-23T05:41:55;95453.81;;;23.68
50206;BMP280;36098;48.390;10.856;2023-03-23T05:44:21;95450.91;;;23.88
50206;BMP280;36098;48.390;10.856;2023-03-23T05:46:47;95451.16;;;24.18
50206;BMP280;36098;48.390;10.856;2023-03-23T05:49:15;95452.91;;;24.09
50206;BMP280;36098;48.390;10.856;2023-03-23T05:51:43;95451.47;;;24.30
50206;BMP280;36098;48.390;10.856;2023-03-23T05:54:14;95448.75;;;24.35
50206;BMP280;36098;48.390;10.856;2023-03-23T05:56:39;95459.97;;;23.95
50206;BMP280;36098;48.390;10.856;2023-03-23T05:59:10;95459.72;;;23.78
50206;BMP280;36098;48.390;10.856;2023-03-23T06:01:36;95454.03;;;23.90
50206;BMP280;36098;48.390;10.856;2023-03-23T06:04:03;95459.22;;;23.95
50206;BMP280;36098;48.390;10.856;2023-03-23T06:06:29;95463.63;;;23.99
50206;BMP280;36098;48.390;10.856;2023-03-23T06:08:55;95465.50;;;24.12
50206;BMP280;36098;48.390;10.856;2023-03-23T06:11:24;95460.22;;;24.12
50206;BMP280;36098;48.390;10.856;2023-03-23T06:13:52;95463.63;;;23.99
50206;BMP280;36098;48.390;10.856;2023-03-23T06:16:18;95450.38;;;23.86
50206;BMP280;36098;48.390;10.856;2023-03-23T06:18:44;95463.19;;;23.92
50206;BMP280;36098;48.390;10.856;2023-03-23T06:21:10;95468.88;;;24.31
50206;BMP280;36098;48.390;10.856;2023-03-23T06:23:36;95466.81;;;24.42
50206;BMP280;36098;48.390;10.856;2023-03-23T06:26:03;95470.16;;;24.02
50206;BMP280;36098;48.390;10.856;2023-03-23T06:28:30;95473.66;;;23.79
50206;BMP280;36098;48.390;10.856;2023-03-23T06:30:58;95473.84;;;23.87
50206;BMP280;36098;48.390;10.856;2023-03-23T06:33:26;95477.44;;;23.91
50206;BMP280;36098;48.390;10.856;2023-03-23T06:35:54;95473.75;;;23.92
50206;BMP280;36098;48.390;10.856;2023-03-23T06:38:21;95474.75;;;23.96
50206;BMP280;36098;48.390;10.856;2023-03-23T06:40:46;95474.16;;;23.81
50206;BMP280;36098;48.390;10.856;2023-03-23T06:43:13;95478.44;;;23.77
50206;BMP280;36098;48.390;10.856;2023-03-23T06:45:39;95484.50;;;23.96
50206;BMP280;36098;48.390;10.856;2023-03-23T06:48:04;95479.97;;;23.83
50206;BMP280;36098;48.390;10.856;2023-03-23T06:50:30;95481.94;;;23.72
50206;BMP280;36098;48.390;10.856;2023-03-23T06:52:57;95478.66;;;23.99
50206;BMP280;36098;48.390;10.856;2023-03-23T06:55:26;95481.53;;;23.84
50206;BMP280;36098;48.390;10.856;2023-03-23T06:57:54;95487.28;;;23.67
50206;BMP280;36098;48.390;10.856;2023-03-23T07:00:22;95479.31;;;23.72
50206;BMP280;36098;48.390;10.856;2023-03-23T07:02:48;95479.59;;;23.52
50206;BMP280;36098;48.390;10.856;2023-03-23T07:05:14;95470.22;;;23.46
50206;BMP280;36098;48.390;10.856;2023-03-23T07:07:40;95478.75;;;23.38
50206;BMP280;36098;48.390;10.856;2023-03-23T07:10:08;95478.25;;;23.36
50206;BMP280;36098;48.390;10.856;2023-03-23T07:12:35;95478.75;;;23.38
50206;BMP280;36098;48.390;10.856;2023-03-23T07:15:04;95485.66;;;23.34
50206;BMP280;36098;48.390;10.856;2023-03-23T07:17:29;95487.50;;;23.34
50206;BMP280;36098;48.390;10.856;2023-03-23T07:19:55;95487.28;;;23.30
50206;BMP280;36098;48.390;10.856;2023-03-23T07:22:21;95487.44;;;23.21
50206;BMP280;36098;48.390;10.856;2023-03-23T07:24:46;95486.38;;;23.22
50206;BMP280;36098;48.390;10.856;2023-03-23T07:27:12;95490.41;;;23.14
50206;BMP280;36098;48.390;10.856;2023-03-23T07:29:37;95495.38;;;23.16
50206;BMP280;36098;48.390;10.856;2023-03-23T07:32:08;95494.63;;;23.15
50206;BMP280;36098;48.390;10.856;2023-03-23T07:34:35;95499.66;;;23.12
50206;BMP280;36098;48.390;10.856;2023-03-23T07:37:02;95503.31;;;23.11
50206;BMP280;36098;48.390;10.856;2023-03-23T07:39:27;95499.41;;;23.08
50206;BMP280;36098;48.390;10.856;2023-03-23T07:41:53;95499.53;;;23.22
50206;BMP280;36098;48.390;10.856;2023-03-23T07:44:18;95487.34;;;23.44
50206;BMP280;36098;48.390;10.856;2023-03-23T07:46:47;95490.28;;;23.42
50206;BMP280;36098;48.390;10.856;2023-03-23T07:49:15;95500.56;;;23.62
50206;BMP280;36098;48.390;10.856;2023-03-23T07:51:42;95501.09;;;23.78
50206;BMP280;36098;48.390;10.856;2023-03-23T07:54:07;95496.19;;;23.71
50206;BMP280;36098;48.390;10.856;2023-03-23T07:56:33;95500.88;;;23.74
50206;BMP280;36098;48.390;10.856;2023-03-23T07:59:03;95501.53;;;23.66
50206;BMP280;36098;48.390;10.856;2023-03-23T08:01:31;95500.56;;;23.62
50206;BMP280;36098;48.390;10.856;2023-03-23T08:03:57;95505.03;;;23.62
50206;BMP280;36098;48.390;10.856;2023-03-23T08:06:23;95508.31;;;23.54
50206;BMP280;36098;48.390;10.856;2023-03-23T08:08:48;95506.19;;;23.37
50206;BMP280;36098;48.390;10.856;2023-03-23T08:11:14;95508.25;;;23.40
50206;BMP280;36098;48.390;10.856;2023-03-23T08:13:40;95505.31;;;23.42
50206;BMP280;36098;48.390;10.856;2023-03-23T08:16:06;95511.16;;;23.39
50206;BMP280;36098;48.390;10.856;2023-03-23T08:18:38;95529.34;;;23.35
50206;BMP280;36098;48.390;10.856;2023-03-23T08:21:04;95515.34;;;23.40
50206;BMP280;36098;48.390;10.856;2023-03-23T08:23:30;95530.44;;;23.34
50206;BMP280;36098;48.390;10.856;2023-03-23T08:25:56;95535.00;;;23.29
50206;BMP280;36098;48.390;10.856;2023-03-23T08:28:25;95527.44;;;23.23
50206;BMP280;36098;48.390;10.856;2023-03-23T08:30:51;95530.28;;;23.26
50206;BMP280;36098;48.390;10.856;2023-03-23T08:33:16;95529.78;;;23.24
50206;BMP280;36098;48.390;10.856;2023-03-23T08:35:45;95522.59;;;23.29
50206;BMP280;36098;48.390;10.856;2023-03-23T08:38:13;95528.94;;;23.28
50206;BMP280;36098;48.390;10.856;2023-03-23T08:40:42;95531.91;;;23.22
50206;BMP280;36098;48.390;10.856;2023-03-23T08:43:08;95554.63;;;23.36
50206;BMP280;36098;48.390;10.856;2023-03-23T08:45:34;95546.75;;;23.36
50206;BMP280;36098;48.390;10.856;2023-03-23T08:48:02;95549.81;;;23.43
50206;BMP280;36098;48.390;10.856;2023-03-23T08:50:32;95550.97;;;23.37
50206;BMP280;36098;48.390;10.856;2023-03-23T08:53:05;95555.16;;;23.38
50206;BMP280;36098;48.390;10.856;2023-03-23T08:55:32;95559.72;;;23.33
50206;BMP280;36098;48.390;10.856;2023-03-23T08:58:00;95555.22;;;23.33
50206;BMP280;36098;48.390;10.856;2023-03-23T09:00:26;95550.97;;;23.37
50206;BMP280;36098;48.390;10.856;2023-03-23T09:02:55;95558.47;;;23.49
50206;BMP280;36098;48.390;10.856;2023-03-23T09:05:22;95551.47;;;23.39
50206;BMP280;36098;48.390;10.856;2023-03-23T09:07:51;95557.41;;;23.27
50206;BMP280;36098;48.390;10.856;2023-03-23T09:10:16;95558.06;;;23.19
50206;BMP280;36098;48.390;10.856;2023-03-23T09:12:43;95552.16;;;23.27
50206;BMP280;36098;48.390;10.856;2023-03-23T09:15:09;95556.78;;;23.34
50206;BMP280;36098;48.390;10.856;2023-03-23T09:17:38;95561.84;;;23.31
50206;BMP280;36098;48.390;10.856;2023-03-23T09:20:04;95562.91;;;23.30
50206;BMP280;36098;48.390;10.856;2023-03-23T09:22:38;95566.78;;;23.14
50206;BMP280;36098;48.390;10.856;2023-03-23T09:25:05;95568.44;;;23.28
50206;BMP280;36098;48.390;10.856;2023-03-23T09:27:31;95566.22;;;23.40
50206;BMP280;36098;48.390;10.856;2023-03-23T09:29:56;95568.69;;;23.32
50206;BMP280;36098;48.390;10.856;2023-03-23T09:32:22;95572.72;;;23.25
50206;BMP280;36098;48.390;10.856;2023-03-23T09:34:47;95573.22;;;23.27
50206;BMP280;36098;48.390;10.856;2023-03-23T09:37:13;95573.16;;;23.31
50206;BMP280;36098;48.390;10.856;2023-03-23T09:39:39;95572.59;;;23.34
50206;BMP280;36098;48.390;10.856;2023-03-23T09:47:04;95573.16;;;23.31
50206;BMP280;36098;48.390;10.856;2023-03-23T09:52:05;95578.88;;;23.38
50206;BMP280;36098;48.390;10.856;2023-03-23T09:54:38;95578.97;;;23.52
50206;BMP280;36098;48.390;10.856;2023-03-23T09:57:11;95591.47;;;23.41
50206;BMP280;36098;48.390;10.856;2023-03-23T09:59:41;95584.56;;;23.45
50206;BMP280;36098;48.390;10.856;2023-03-23T10:04:46;95581.44;;;23.43
50206;BMP280;36098;48.390;10.856;2023-03-23T10:07:16;95582.34;;;23.34
50206;BMP280;36098;48.390;10.856;2023-03-23T10:09:43;95587.72;;;23.47
50206;BMP280;36098;48.390;10.856;2023-03-23T10:14:40;95591.03;;;23.76
50206;BMP280;36098;48.390;10.856;2023-03-23T10:17:15;95581.59;;;23.70
50206;BMP280;36098;48.390;10.856;2023-03-23T10:22:10;95595.22;;;23.35
50206;BMP280;36098;48.390;10.856;2023-03-23T10:24:41;95589.13;;;23.40
50206;BMP280;36098;48.390;10.856;2023-03-23T10:27:24;95589.13;;;23.40
50206;BMP280;36098;48.390;10.856;2023-03-23T10:29:59;95588.78;;;23.46
50206;BMP280;36098;48.390;10.856;2023-03-23T10:32:40;95596.75;;;23.41
50206;BMP280;36098;48.390;10.856;2023-03-23T10:35:07;95604.75;;;23.55
50206;BMP280;36098;48.390;10.856;2023-03-23T10:37:36;95598.69;;;23.54
50206;BMP280;36098;48.390;10.856;2023-03-23T10:40:02;95596.63;;;23.51
50206;BMP280;36098;48.390;10.856;2023-03-23T10:44:54;95596.03;;;23.54
50206;BMP280;36098;48.390;10.856;2023-03-23T10:47:21;95595.75;;;23.37
50206;BMP280;36098;48.390;10.856;2023-03-23T10:54:56;95599.81;;;23.02
50206;BMP280;36098;48.390;10.856;2023-03-23T10:59:46;95592.00;;;22.92
50206;BMP280;36098;48.390;10.856;2023-03-23T11:02:15;95602.03;;;22.90
50206;BMP280;36098;48.390;10.856;2023-03-23T11:04:44;95594.44;;;22.88
50206;BMP280;36098;48.390;10.856;2023-03-23T11:07:10;95598.91;;;22.88
50206;BMP280;36098;48.390;10.856;2023-03-23T11:09:40;95601.25;;;22.89
50206;BMP280;36098;48.390;10.856;2023-03-23T11:12:16;95592.84;;;22.87
50206;BMP280;36098;48.390;10.856;2023-03-23T11:14:42;95598.34;;;22.91
50206;BMP280;36098;48.390;10.856;2023-03-23T11:17:23;95598.34;;;22.91
50206;BMP280;36098;48.390;10.856;2023-03-23T11:19:49;95607.03;;;22.91
50206;BMP280;36098;48.390;10.856;2023-03-23T11:22:28;95605.50;;;22.85
50206;BMP280;36098;48.390;10.856;2023-03-23T11:24:54;95598.97;;;22.83
50206;BMP280;36098;48.390;10.856;2023-03-23T11:27:20;95611.78;;;22.89
50206;BMP280;36098;48.390;10.856;2023-03-23T11:29:50;95608.88;;;22.91
50206;BMP280;36098;48.390;10.856;2023-03-23T11:32:17;95600.47;;;22.89
50206;BMP280;36098;48.390;10.856;2023-03-23T11:34:47;95614.69;;;22.88
50206;BMP280;36098;48.390;10.856;2023-03-23T11:37:25;95608.88;;;22.91
50206;BMP280;36098;48.390;10.856;2023-03-23T11:39:54;95613.88;;;22.92
50206;BMP280;36098;48.390;10.856;2023-03-23T11:42:21;95614.63;;;22.93
50206;BMP280;36098;48.390;10.856;2023-03-23T11:44:47;95617.00;;;22.94
50206;BMP280;36098;48.390;10.856;2023-03-23T11:49:57;95605.34;;;23.00
50206;BMP280;36098;48.390;10.856;2023-03-23T11:54:50;95613.56;;;22.94
50206;BMP280;36098;48.390;10.856;2023-03-23T11:57:17;95614.88;;;22.96
50206;BMP280;36098;48.390;10.856;2023-03-23T11:59:43;95608.78;;;23.01
50206;BMP280;36098;48.390;10.856;2023-03-23T12:02:28;95608.47;;;23.02
50206;BMP280;36098;48.390;10.856;2023-03-23T12:07:46;95607.25;;;22.95
50206;BMP280;36098;48.390;10.856;2023-03-23T12:15:26;95596.34;;;23.29
50206;BMP280;36098;48.390;10.856;2023-03-23T12:17:58;95603.94;;;23.54
50206;BMP280;36098;48.390;10.856;2023-03-23T12:38:47;95587.72;;;23.47
50206;BMP280;36098;48.390;10.856;2023-03-23T12:43:51;95591.41;;;23.46
50206;BMP280;36098;48.390;10.856;2023-03-23T12:49:02;95583.28;;;23.43
50206;BMP280;36098;48.390;10.856;2023-03-23T12:54:10;95574.16;;;23.77
50206;BMP280;36098;48.390;10.856;2023-03-23T12:56:39;95578.88;;;23.75
50206;BMP280;36098;48.390;10.856;2023-03-23T13:01:37;95575.16;;;24.00
50206;BMP280;36098;48.390;10.856;2023-03-23T13:06:35;95563.09;;;24.12
50206;BMP280;36098;48.390;10.856;2023-03-23T13:09:07;95556.91;;;24.03
50206;BMP280;36098;48.390;10.856;2023-03-23T13:11:38;95555.34;;;23.84
50206;BMP280;36098;48.390;10.856;2023-03-23T13:22:02;95539.00;;;23.63
50206;BMP280;36098;48.390;10.856;2023-03-23T13:24:29;95538.44;;;23.66
50206;BMP280;36098;48.390;10.856;2023-03-23T13:26:56;95541.78;;;23.72
50206;BMP280;36098;48.390;10.856;2023-03-23T13:29:26;95536.31;;;23.68
50206;BMP280;36098;48.390;10.856;2023-03-23T13:31:52;95543.13;;;23.69
50206;BMP280;36098;48.390;10.856;2023-03-23T13:34:29;95537.75;;;23.79
50206;BMP280;36098;48.390;10.856;2023-03-23T13:36:59;95533.44;;;24.20
50206;BMP280;36098;48.390;10.856;2023-03-23T13:39:26;95537.47;;;24.31
50206;BMP280;36098;48.390;10.856;2023-03-23T13:44:24;95537.47;;;24.31
50206;BMP280;36098;48.390;10.856;2023-03-23T13:46:57;95538.28;;;24.45
50206;BMP280;36098;48.390;10.856;2023-03-23T13:49:23;95528.94;;;24.21
50206;BMP280;36098;48.390;10.856;2023-03-23T13:52:02;95529.72;;;24.21
50206;BMP280;36098;48.390;10.856;2023-03-23T13:54:38;95521.09;;;24.16
50206;BMP280;36098;48.390;10.856;2023-03-23T13:57:52;95527.03;;;24.40
50206;BMP280;36098;48.390;10.856;2023-03-23T14:00:08;95514.38;;;24.23
50206;BMP280;36098;48.390;10.856;2023-03-23T14:02:36;95516.38;;;23.99
50206;BMP280;36098;48.390;10.856;2023-03-23T14:05:10;95517.28;;;23.71
50206;BMP280;36098;48.390;10.856;2023-03-23T14:07:55;95508.75;;;23.79
50206;BMP280;36098;48.390;10.856;2023-03-23T14:10:21;95521.44;;;24.28
50206;BMP280;36098;48.390;10.856;2023-03-23T14:12:46;95517.81;;;24.69
50206;BMP280;36098;48.390;10.856;2023-03-23T14:15:14;95520.84;;;24.63
50206;BMP280;36098;48.390;10.856;2023-03-23T14:17:43;95515.75;;;24.53
50206;BMP280;36098;48.390;10.856;2023-03-23T14:20:09;95515.47;;;24.22
50206;BMP280;36098;48.390;10.856;2023-03-23T14:22:40;95519.22;;;24.48
50206;BMP280;36098;48.390;10.856;2023-03-23T14:27:37;95520.66;;;24.27
50206;BMP280;36098;48.390;10.856;2023-03-23T14:30:04;95518.72;;;24.33
50206;BMP280;36098;48.390;10.856;2023-03-23T14:32:31;95522.72;;;24.44
50206;BMP280;36098;48.390;10.856;2023-03-23T14:34:57;95528.91;;;24.39
50206;BMP280;36098;48.390;10.856;2023-03-23T14:37:23;95525.94;;;24.59
50206;BMP280;36098;48.390;10.856;2023-03-23T14:39:49;95521.97;;;24.43
50206;BMP280;36098;48.390;10.856;2023-03-23T14:42:18;95527.78;;;24.27
50206;BMP280;36098;48.390;10.856;2023-03-23T14:44:44;95530.13;;;24.28
50206;BMP280;36098;48.390;10.856;2023-03-23T14:47:13;95516.72;;;24.25
50206;BMP280;36098;48.390;10.856;2023-03-23T14:49:41;95522.53;;;24.08
50206;BMP280;36098;48.390;10.856;2023-03-23T14:52:14;95526.97;;;23.94
50206;BMP280;36098;48.390;10.856;2023-03-23T14:54:40;95529.28;;;23.82
50206;BMP280;36098;48.390;10.856;2023-03-23T14:57:13;95518.34;;;24.07
50206;BMP280;36098;48.390;10.856;2023-03-23T14:59:39;95533.31;;;23.93
50206;BMP280;36098;48.390;10.856;2023-03-23T15:02:05;95520.84;;;24.17
50206;BMP280;36098;48.390;10.856;2023-03-23T15:04:30;95532.56;;;23.93
50206;BMP280;36098;48.390;10.856;2023-03-23T15:07:00;95517.78;;;23.73
50206;BMP280;36098;48.390;10.856;2023-03-23T15:09:26;95520.69;;;23.53
50206;BMP280;36098;48.390;10.856;2023-03-23T15:11:56;95512.28;;;23.51
50206;BMP280;36098;48.390;10.856;2023-03-23T15:14:22;95519.44;;;23.51
50206;BMP280;36098;48.390;10.856;2023-03-23T15:16:49;95518.00;;;23.58
50206;BMP280;36098;48.390;10.856;2023-03-23T15:19:36;95529.81;;;23.79
50206;BMP280;36098;48.390;10.856;2023-03-23T15:22:05;95526.25;;;23.70
50206;BMP280;36098;48.390;10.856;2023-03-23T15:27:23;95524.53;;;23.61
50206;BMP280;36098;48.390;10.856;2023-03-23T15:29:52;95526.56;;;23.87
50206;BMP280;36098;48.390;10.856;2023-03-23T15:32:25;95532.88;;;24.05
50206;BMP280;36098;48.390;10.856;2023-03-23T15:34:51;95519.50;;;24.01
50206;BMP280;36098;48.390;10.856;2023-03-23T15:37:39;95522.50;;;23.76
50206;BMP280;36098;48.390;10.856;2023-03-23T15:40:02;95525.50;;;23.70
50206;BMP280;36098;48.390;10.856;2023-03-23T15:42:29;95528.59;;;23.53
50206;BMP280;36098;48.390;10.856;2023-03-23T15:52:34;95531.53;;;23.52
50206;BMP280;36098;48.390;10.856;2023-03-23T15:54:59;95531.47;;;23.38
50206;BMP280;36098;48.390;10.856;2023-03-23T15:57:25;95534.13;;;23.33
50206;BMP280;36098;48.390;10.856;2023-03-23T15:59:50;95520.50;;;23.68
50206;BMP280;36098;48.390;10.856;2023-03-23T16:02:17;95523.53;;;23.75